sensor_id;sensor_type;location;lat;lon;timestamp;P1;durP1;ratioP1;P2;durP2;ratioP2
42602;SDS011;28233;55.748;48.752;2023-04-08T00:00:40;4.32;;;1.42;;
42602;SDS011;28233;55.748;48.752;2023-04-08T00:02:43;5.70;;;2.13;;
42602;SDS011;28233;55.748;48.752;2023-04-08T00:04:45;11.85;;;2.13;;
42602;SDS011;28233;55.748;48.752;2023-04-08T00:06:48;4.78;;;1.40;;
42602;SDS011;28233;55.748;48.752;2023-04-08T00:08:51;12.05;;;2.17;;
42602;SDS011;28233;55.748;48.752;2023-04-08T00:10:54;6.78;;;2.00;;
42602;SDS011;28233;55.748;48.752;2023-04-08T00:12:57;5.13;;;2.03;;
42602;SDS011;28233;55.748;48.752;2023-04-08T00:14:59;4.85;;;1.77;;
42602;SDS011;28233;55.748;48.752;2023-04-08T00:17:04;5.88;;;2.05;;
42602;SDS011;28233;55.748;48.752;2023-04-08T00:19:07;4.68;;;1.92;;
42602;SDS011;28233;55.748;48.752;2023-04-08T00:21:10;7.38;;;2.20;;
42602;SDS011;28233;55.748;48.752;2023-04-08T00:23:13;8.52;;;2.05;;
42602;SDS011;28233;55.748;48.752;2023-04-08T00:25:15;4.30;;;1.70;;
42602;SDS011;28233;55.748;48.752;2023-04-08T00:27:18;2.17;;;1.10;;
42602;SDS011;28233;55.748;48.752;2023-04-08T00:29:20;4.32;;;1.48;;
42602;SDS011;28233;55.748;48.752;2023-04-08T00:31:23;4.82;;;1.90;;
42602;SDS011;28233;55.748;48.752;2023-04-08T00:33:26;5.65;;;2.60;;
42602;SDS011;28233;55.748;48.752;2023-04-08T00:35:29;7.82;;;2.00;;
42602;SDS011;28233;55.748;48.752;2023-04-08T00:37:32;2.85;;;1.48;;
42602;SDS011;28233;55.748;48.752;2023-04-08T00:39:36;4.60;;;1.67;;
42602;SDS011;28233;55.748;48.752;2023-04-08T00:41:39;4.70;;;1.77;;
42602;SDS011;28233;55.748;48.752;2023-04-08T00:43:42;4.07;;;1.52;;
42602;SDS011;28233;55.748;48.752;2023-04-08T00:45:44;4.97;;;1.77;;
42602;SDS011;28233;55.748;48.752;2023-04-08T00:47:47;8.93;;;2.35;;
42602;SDS011;28233;55.748;48.752;2023-04-08T00:49:54;4.32;;;1.42;;
42602;SDS011;28233;55.748;48.752;2023-04-08T00:51:57;6.85;;;2.72;;
42602;SDS011;28233;55.748;48.752;2023-04-08T00:54:01;6.53;;;2.05;;
42602;SDS011;28233;55.748;48.752;2023-04-08T00:56:05;5.45;;;2.25;;
42602;SDS011;28233;55.748;48.752;2023-04-08T00:58:08;3.45;;;1.75;;
42602;SDS011;28233;55.748;48.752;2023-04-08T01:00:11;12.10;;;2.13;;
42602;SDS011;28233;55.748;48.752;2023-04-08T01:02:25;18.45;;;2.25;;
42602;SDS011;28233;55.748;48.752;2023-04-08T01:04:47;8.38;;;2.15;;
42602;SDS011;28233;55.748;48.752;2023-04-08T01:06:55;7.70;;;2.63;;
42602;SDS011;28233;55.748;48.752;2023-04-08T01:09:05;8.93;;;2.35;;
42602;SDS011;28233;55.748;48.752;2023-04-08T01:11:09;6.20;;;1.90;;
42602;SDS011;28233;55.748;48.752;2023-04-08T01:13:15;6.45;;;2.10;;
42602;SDS011;28233;55.748;48.752;2023-04-08T01:15:20;6.70;;;1.85;;
42602;SDS011;28233;55.748;48.752;2023-04-08T01:17:23;5.63;;;2.22;;
42602;SDS011;28233;55.748;48.752;2023-04-08T01:19:28;5.43;;;1.83;;
42602;SDS011;28233;55.748;48.752;2023-04-08T01:21:35;8.23;;;1.63;;
42602;SDS011;28233;55.748;48.752;2023-04-08T01:25:51;8.10;;;1.92;;
42602;SDS011;28233;55.748;48.752;2023-04-08T01:27:55;4.22;;;1.45;;
42602;SDS011;28233;55.748;48.752;2023-04-08T01:30:00;3.65;;;1.88;;
42602;SDS011;28233;55.748;48.752;2023-04-08T01:32:05;3.80;;;1.80;;
42602;SDS011;28233;55.748;48.752;2023-04-08T01:34:09;5.18;;;2.03;;
42602;SDS011;28233;55.748;48.752;2023-04-08T01:36:14;3.83;;;1.85;;
42602;SDS011;28233;55.748;48.752;2023-04-08T01:38:18;3.80;;;2.00;;
42602;SDS011;28233;55.748;48.752;2023-04-08T01:40:22;3.67;;;1.85;;
42602;SDS011;28233;55.748;48.752;2023-04-08T01:42:25;3.95;;;1.63;;
42602;SDS011;28233;55.748;48.752;2023-04-08T01:44:31;6.35;;;2.28;;
42602;SDS011;28233;55.748;48.752;2023-04-08T01:46:34;8.98;;;1.98;;
42602;SDS011;28233;55.748;48.752;2023-04-08T01:48:38;9.20;;;2.88;;
42602;SDS011;28233;55.748;48.752;2023-04-08T01:50:42;4.63;;;1.50;;
42602;SDS011;28233;55.748;48.752;2023-04-08T01:52:46;4.70;;;2.25;;
42602;SDS011;28233;55.748;48.752;2023-04-08T01:54:50;7.32;;;2.20;;
42602;SDS011;28233;55.748;48.752;2023-04-08T01:56:54;10.85;;;1.85;;
42602;SDS011;28233;55.748;48.752;2023-04-08T01:58:58;5.60;;;1.67;;
42602;SDS011;28233;55.748;48.752;2023-04-08T02:01:04;7.05;;;2.13;;
42602;SDS011;28233;55.748;48.752;2023-04-08T02:03:12;7.47;;;1.70;;
42602;SDS011;28233;55.748;48.752;2023-04-08T02:05:19;3.92;;;1.42;;
42602;SDS011;28233;55.748;48.752;2023-04-08T02:07:22;7.85;;;1.98;;
42602;SDS011;28233;55.748;48.752;2023-04-08T02:09:25;4.65;;;1.73;;
42602;SDS011;28233;55.748;48.752;2023-04-08T02:11:28;5.90;;;1.65;;
42602;SDS011;28233;55.748;48.752;2023-04-08T02:13:31;4.47;;;1.70;;
42602;SDS011;28233;55.748;48.752;2023-04-08T02:16:05;8.15;;;3.15;;
42602;SDS011;28233;55.748;48.752;2023-04-08T02:18:19;3.67;;;1.50;;
42602;SDS011;28233;55.748;48.752;2023-04-08T02:20:30;5.47;;;1.90;;
42602;SDS011;28233;55.748;48.752;2023-04-08T02:22:41;4.88;;;1.75;;
42602;SDS011;28233;55.748;48.752;2023-04-08T02:24:49;6.88;;;2.20;;
42602;SDS011;28233;55.748;48.752;2023-04-08T02:26:52;3.30;;;1.77;;
42602;SDS011;28233;55.748;48.752;2023-04-08T02:28:57;4.18;;;1.63;;
42602;SDS011;28233;55.748;48.752;2023-04-08T02:31:01;6.50;;;2.35;;
42602;SDS011;28233;55.748;48.752;2023-04-08T02:33:07;3.00;;;1.60;;
42602;SDS011;28233;55.748;48.752;2023-04-08T02:35:10;5.22;;;1.90;;
42602;SDS011;28233;55.748;48.752;2023-04-08T02:37:14;7.63;;;1.90;;
42602;SDS011;28233;55.748;48.752;2023-04-08T02:39:17;4.18;;;1.58;;
42602;SDS011;28233;55.748;48.752;2023-04-08T02:41:20;6.72;;;1.80;;
42602;SDS011;28233;55.748;48.752;2023-04-08T02:43:22;8.32;;;2.20;;
42602;SDS011;28233;55.748;48.752;2023-04-08T02:45:37;6.93;;;2.88;;
42602;SDS011;28233;55.748;48.752;2023-04-08T02:47:42;4.97;;;2.13;;
42602;SDS011;28233;55.748;48.752;2023-04-08T02:49:44;5.70;;;1.63;;
42602;SDS011;28233;55.748;48.752;2023-04-08T02:51:47;3.22;;;1.52;;
42602;SDS011;28233;55.748;48.752;2023-04-08T02:53:49;5.45;;;2.90;;
42602;SDS011;28233;55.748;48.752;2023-04-08T02:55:52;9.07;;;2.38;;
42602;SDS011;28233;55.748;48.752;2023-04-08T02:57:55;4.22;;;1.75;;
42602;SDS011;28233;55.748;48.752;2023-04-08T02:59:57;6.00;;;2.25;;
42602;SDS011;28233;55.748;48.752;2023-04-08T03:02:00;3.75;;;2.05;;
42602;SDS011;28233;55.748;48.752;2023-04-08T03:04:03;3.85;;;1.88;;
42602;SDS011;28233;55.748;48.752;2023-04-08T03:06:06;3.00;;;1.67;;
42602;SDS011;28233;55.748;48.752;2023-04-08T03:08:08;4.28;;;2.10;;
42602;SDS011;28233;55.748;48.752;2023-04-08T03:10:11;4.47;;;1.60;;
42602;SDS011;28233;55.748;48.752;2023-04-08T03:12:14;5.80;;;1.73;;
42602;SDS011;28233;55.748;48.752;2023-04-08T03:14:17;6.53;;;1.90;;
42602;SDS011;28233;55.748;48.752;2023-04-08T03:16:19;6.32;;;2.15;;
42602;SDS011;28233;55.748;48.752;2023-04-08T03:18:22;6.05;;;3.25;;
42602;SDS011;28233;55.748;48.752;2023-04-08T03:20:25;2.40;;;1.50;;
42602;SDS011;28233;55.748;48.752;2023-04-08T03:22:28;5.90;;;1.77;;
42602;SDS011;28233;55.748;48.752;2023-04-08T03:24:30;8.48;;;2.95;;
42602;SDS011;28233;55.748;48.752;2023-04-08T03:26:33;5.60;;;1.70;;
42602;SDS011;28233;55.748;48.752;2023-04-08T03:28:36;9.10;;;2.05;;
42602;SDS011;28233;55.748;48.752;2023-04-08T03:30:39;3.45;;;1.73;;
42602;SDS011;28233;55.748;48.752;2023-04-08T03:32:41;3.58;;;1.65;;
42602;SDS011;28233;55.748;48.752;2023-04-08T03:34:44;5.07;;;1.63;;
42602;SDS011;28233;55.748;48.752;2023-04-08T03:36:47;6.28;;;1.70;;
42602;SDS011;28233;55.748;48.752;2023-04-08T03:38:50;7.03;;;1.52;;
42602;SDS011;28233;55.748;48.752;2023-04-08T03:40:53;5.65;;;1.80;;
42602;SDS011;28233;55.748;48.752;2023-04-08T03:42:55;13.75;;;2.78;;
42602;SDS011;28233;55.748;48.752;2023-04-08T03:44:58;5.68;;;1.35;;
42602;SDS011;28233;55.748;48.752;2023-04-08T03:47:01;17.00;;;2.85;;
42602;SDS011;28233;55.748;48.752;2023-04-08T03:49:03;6.07;;;1.65;;
42602;SDS011;28233;55.748;48.752;2023-04-08T03:51:06;7.75;;;2.50;;
42602;SDS011;28233;55.748;48.752;2023-04-08T03:53:09;5.95;;;1.95;;
42602;SDS011;28233;55.748;48.752;2023-04-08T03:55:13;3.17;;;1.83;;
42602;SDS011;28233;55.748;48.752;2023-04-08T03:57:16;7.70;;;1.80;;
42602;SDS011;28233;55.748;48.752;2023-04-08T03:59:19;4.60;;;1.60;;
42602;SDS011;28233;55.748;48.752;2023-04-08T04:01:21;6.85;;;2.13;;
42602;SDS011;28233;55.748;48.752;2023-04-08T04:03:24;4.80;;;1.83;;
42602;SDS011;28233;55.748;48.752;2023-04-08T04:05:27;3.13;;;1.50;;
42602;SDS011;28233;55.748;48.752;2023-04-08T04:07:30;7.72;;;1.65;;
42602;SDS011;28233;55.748;48.752;2023-04-08T04:09:33;3.53;;;1.60;;
42602;SDS011;28233;55.748;48.752;2023-04-08T04:11:36;7.35;;;2.00;;
42602;SDS011;28233;55.748;48.752;2023-04-08T04:13:38;6.72;;;1.67;;
42602;SDS011;28233;55.748;48.752;2023-04-08T04:15:41;5.40;;;1.77;;
42602;SDS011;28233;55.748;48.752;2023-04-08T04:17:46;4.95;;;2.50;;
42602;SDS011;28233;55.748;48.752;2023-04-08T04:19:51;5.85;;;2.13;;
42602;SDS011;28233;55.748;48.752;2023-04-08T04:21:54;6.03;;;2.05;;
42602;SDS011;28233;55.748;48.752;2023-04-08T04:23:57;3.38;;;1.58;;
42602;SDS011;28233;55.748;48.752;2023-04-08T04:25:59;4.80;;;1.60;;
42602;SDS011;28233;55.748;48.752;2023-04-08T04:28:02;4.47;;;1.70;;
42602;SDS011;28233;55.748;48.752;2023-04-08T04:30:05;6.85;;;1.95;;
42602;SDS011;28233;55.748;48.752;2023-04-08T04:32:08;5.38;;;2.17;;
42602;SDS011;28233;55.748;48.752;2023-04-08T04:34:11;4.95;;;2.50;;
42602;SDS011;28233;55.748;48.752;2023-04-08T04:36:14;6.28;;;1.85;;
42602;SDS011;28233;55.748;48.752;2023-04-08T04:38:16;10.65;;;2.42;;
42602;SDS011;28233;55.748;48.752;2023-04-08T04:40:19;6.30;;;1.60;;
42602;SDS011;28233;55.748;48.752;2023-04-08T04:42:22;6.22;;;2.35;;
42602;SDS011;28233;55.748;48.752;2023-04-08T04:44:25;5.15;;;1.90;;
42602;SDS011;28233;55.748;48.752;2023-04-08T04:46:28;2.92;;;1.60;;
42602;SDS011;28233;55.748;48.752;2023-04-08T04:48:30;4.00;;;1.73;;
42602;SDS011;28233;55.748;48.752;2023-04-08T04:50:34;5.75;;;1.73;;
42602;SDS011;28233;55.748;48.752;2023-04-08T04:52:36;5.43;;;2.33;;
42602;SDS011;28233;55.748;48.752;2023-04-08T04:54:39;9.38;;;2.15;;
42602;SDS011;28233;55.748;48.752;2023-04-08T04:56:42;5.70;;;2.40;;
42602;SDS011;28233;55.748;48.752;2023-04-08T04:58:45;5.25;;;1.88;;
42602;SDS011;28233;55.748;48.752;2023-04-08T05:00:47;4.55;;;1.48;;
42602;SDS011;28233;55.748;48.752;2023-04-08T05:02:50;6.60;;;2.20;;
42602;SDS011;28233;55.748;48.752;2023-04-08T05:04:53;4.18;;;1.10;;
42602;SDS011;28233;55.748;48.752;2023-04-08T05:06:58;7.55;;;1.98;;
42602;SDS011;28233;55.748;48.752;2023-04-08T05:09:01;8.55;;;2.35;;
42602;SDS011;28233;55.748;48.752;2023-04-08T05:11:07;9.00;;;2.55;;
42602;SDS011;28233;55.748;48.752;2023-04-08T05:13:11;7.72;;;2.58;;
42602;SDS011;28233;55.748;48.752;2023-04-08T05:15:14;10.88;;;1.92;;
42602;SDS011;28233;55.748;48.752;2023-04-08T05:17:17;8.57;;;2.15;;
42602;SDS011;28233;55.748;48.752;2023-04-08T05:19:19;9.75;;;2.63;;
42602;SDS011;28233;55.748;48.752;2023-04-08T05:21:22;11.18;;;2.85;;
42602;SDS011;28233;55.748;48.752;2023-04-08T05:23:25;3.53;;;1.73;;
42602;SDS011;28233;55.748;48.752;2023-04-08T05:25:28;7.82;;;2.03;;
42602;SDS011;28233;55.748;48.752;2023-04-08T05:27:31;6.47;;;2.58;;
42602;SDS011;28233;55.748;48.752;2023-04-08T05:29:34;6.97;;;3.00;;
42602;SDS011;28233;55.748;48.752;2023-04-08T05:31:37;8.32;;;3.33;;
42602;SDS011;28233;55.748;48.752;2023-04-08T05:33:39;8.48;;;2.67;;
42602;SDS011;28233;55.748;48.752;2023-04-08T05:35:42;7.70;;;2.45;;
42602;SDS011;28233;55.748;48.752;2023-04-08T05:37:45;4.28;;;1.98;;
42602;SDS011;28233;55.748;48.752;2023-04-08T05:39:47;6.10;;;1.83;;
42602;SDS011;28233;55.748;48.752;2023-04-08T05:41:50;9.70;;;2.58;;
42602;SDS011;28233;55.748;48.752;2023-04-08T05:43:53;6.50;;;2.72;;
42602;SDS011;28233;55.748;48.752;2023-04-08T05:45:55;6.38;;;1.95;;
42602;SDS011;28233;55.748;48.752;2023-04-08T05:47:58;4.60;;;1.38;;
42602;SDS011;28233;55.748;48.752;2023-04-08T05:50:01;8.55;;;1.83;;
42602;SDS011;28233;55.748;48.752;2023-04-08T05:52:04;8.45;;;1.40;;
42602;SDS011;28233;55.748;48.752;2023-04-08T05:54:07;9.35;;;3.63;;
42602;SDS011;28233;55.748;48.752;2023-04-08T05:56:10;3.67;;;1.73;;
42602;SDS011;28233;55.748;48.752;2023-04-08T05:58:13;3.83;;;1.63;;
42602;SDS011;28233;55.748;48.752;2023-04-08T06:00:15;3.03;;;1.40;;
42602;SDS011;28233;55.748;48.752;2023-04-08T06:02:18;4.70;;;1.48;;
42602;SDS011;28233;55.748;48.752;2023-04-08T06:04:21;6.38;;;1.65;;
42602;SDS011;28233;55.748;48.752;2023-04-08T06:06:24;3.55;;;1.50;;
42602;SDS011;28233;55.748;48.752;2023-04-08T06:08:27;4.28;;;2.10;;
42602;SDS011;28233;55.748;48.752;2023-04-08T06:10:29;9.25;;;2.25;;
42602;SDS011;28233;55.748;48.752;2023-04-08T06:12:36;5.32;;;1.60;;
42602;SDS011;28233;55.748;48.752;2023-04-08T06:14:42;3.45;;;1.38;;
42602;SDS011;28233;55.748;48.752;2023-04-08T06:16:44;1.77;;;1.10;;
42602;SDS011;28233;55.748;48.752;2023-04-08T06:18:47;4.45;;;0.88;;
42602;SDS011;28233;55.748;48.752;2023-04-08T06:20:50;4.20;;;1.15;;
42602;SDS011;28233;55.748;48.752;2023-04-08T06:22:53;4.22;;;1.52;;
42602;SDS011;28233;55.748;48.752;2023-04-08T06:24:56;2.95;;;1.27;;
42602;SDS011;28233;55.748;48.752;2023-04-08T06:26:59;3.42;;;0.90;;
42602;SDS011;28233;55.748;48.752;2023-04-08T06:29:01;4.25;;;1.33;;
42602;SDS011;28233;55.748;48.752;2023-04-08T06:31:04;3.95;;;0.90;;
42602;SDS011;28233;55.748;48.752;2023-04-08T06:33:07;1.38;;;0.70;;
42602;SDS011;28233;55.748;48.752;2023-04-08T06:35:10;3.60;;;0.82;;
42602;SDS011;28233;55.748;48.752;2023-04-08T06:37:13;7.30;;;1.00;;
42602;SDS011;28233;55.748;48.752;2023-04-08T06:39:16;3.92;;;1.65;;
42602;SDS011;28233;55.748;48.752;2023-04-08T06:41:20;3.05;;;1.40;;
42602;SDS011;28233;55.748;48.752;2023-04-08T06:43:23;3.40;;;1.35;;
42602;SDS011;28233;55.748;48.752;2023-04-08T06:45:25;6.28;;;1.40;;
42602;SDS011;28233;55.748;48.752;2023-04-08T06:47:29;8.73;;;2.13;;
42602;SDS011;28233;55.748;48.752;2023-04-08T06:49:32;7.25;;;1.55;;
42602;SDS011;28233;55.748;48.752;2023-04-08T06:51:35;7.63;;;1.90;;
42602;SDS011;28233;55.748;48.752;2023-04-08T06:53:38;2.88;;;1.63;;
42602;SDS011;28233;55.748;48.752;2023-04-08T06:55:41;9.20;;;1.70;;
42602;SDS011;28233;55.748;48.752;2023-04-08T06:57:43;5.38;;;1.58;;
42602;SDS011;28233;55.748;48.752;2023-04-08T06:59:46;3.33;;;2.08;;
42602;SDS011;28233;55.748;48.752;2023-04-08T07:01:49;6.25;;;1.42;;
42602;SDS011;28233;55.748;48.752;2023-04-08T07:03:52;5.22;;;1.40;;
42602;SDS011;28233;55.748;48.752;2023-04-08T07:05:55;5.65;;;1.70;;
42602;SDS011;28233;55.748;48.752;2023-04-08T07:07:58;4.13;;;1.73;;
42602;SDS011;28233;55.748;48.752;2023-04-08T07:10:00;10.48;;;2.25;;
42602;SDS011;28233;55.748;48.752;2023-04-08T07:12:04;4.65;;;1.80;;
42602;SDS011;28233;55.748;48.752;2023-04-08T07:14:07;10.55;;;1.40;;
42602;SDS011;28233;55.748;48.752;2023-04-08T07:16:09;4.40;;;1.55;;
42602;SDS011;28233;55.748;48.752;2023-04-08T07:18:12;7.57;;;1.48;;
42602;SDS011;28233;55.748;48.752;2023-04-08T07:20:15;8.68;;;1.70;;
42602;SDS011;28233;55.748;48.752;2023-04-08T07:22:18;5.45;;;1.38;;
42602;SDS011;28233;55.748;48.752;2023-04-08T07:24:20;5.88;;;2.20;;
42602;SDS011;28233;55.748;48.752;2023-04-08T07:26:23;2.25;;;1.45;;
42602;SDS011;28233;55.748;48.752;2023-04-08T07:28:26;5.55;;;1.77;;
42602;SDS011;28233;55.748;48.752;2023-04-08T07:30:28;5.57;;;1.77;;
42602;SDS011;28233;55.748;48.752;2023-04-08T07:32:32;5.50;;;1.35;;
42602;SDS011;28233;55.748;48.752;2023-04-08T07:34:35;4.57;;;1.35;;
42602;SDS011;28233;55.748;48.752;2023-04-08T07:36:37;5.40;;;1.98;;
42602;SDS011;28233;55.748;48.752;2023-04-08T07:38:41;4.00;;;1.60;;
42602;SDS011;28233;55.748;48.752;2023-04-08T07:40:44;4.95;;;1.67;;
42602;SDS011;28233;55.748;48.752;2023-04-08T07:42:47;5.45;;;1.73;;
42602;SDS011;28233;55.748;48.752;2023-04-08T07:44:50;6.78;;;1.60;;
42602;SDS011;28233;55.748;48.752;2023-04-08T07:46:53;5.40;;;1.20;;
42602;SDS011;28233;55.748;48.752;2023-04-08T07:48:56;4.85;;;1.17;;
42602;SDS011;28233;55.748;48.752;2023-04-08T07:51:05;5.18;;;1.77;;
42602;SDS011;28233;55.748;48.752;2023-04-08T07:53:12;7.32;;;1.95;;
42602;SDS011;28233;55.748;48.752;2023-04-08T07:55:15;9.10;;;1.77;;
42602;SDS011;28233;55.748;48.752;2023-04-08T07:57:18;9.02;;;1.58;;
42602;SDS011;28233;55.748;48.752;2023-04-08T07:59:20;5.70;;;1.20;;
42602;SDS011;28233;55.748;48.752;2023-04-08T08:01:23;5.20;;;1.27;;
42602;SDS011;28233;55.748;48.752;2023-04-08T08:03:26;2.75;;;1.23;;
42602;SDS011;28233;55.748;48.752;2023-04-08T08:05:30;2.28;;;1.13;;
42602;SDS011;28233;55.748;48.752;2023-04-08T08:07:33;5.95;;;1.60;;
42602;SDS011;28233;55.748;48.752;2023-04-08T08:09:35;9.80;;;1.75;;
42602;SDS011;28233;55.748;48.752;2023-04-08T08:11:38;7.70;;;1.70;;
42602;SDS011;28233;55.748;48.752;2023-04-08T08:13:41;3.80;;;1.10;;
42602;SDS011;28233;55.748;48.752;2023-04-08T08:15:43;4.40;;;1.90;;
42602;SDS011;28233;55.748;48.752;2023-04-08T08:17:46;2.67;;;1.25;;
42602;SDS011;28233;55.748;48.752;2023-04-08T08:19:49;5.53;;;1.75;;
42602;SDS011;28233;55.748;48.752;2023-04-08T08:21:52;2.45;;;1.17;;
42602;SDS011;28233;55.748;48.752;2023-04-08T08:23:54;10.70;;;1.77;;
42602;SDS011;28233;55.748;48.752;2023-04-08T08:25:58;7.47;;;1.60;;
42602;SDS011;28233;55.748;48.752;2023-04-08T08:28:02;5.55;;;1.55;;
42602;SDS011;28233;55.748;48.752;2023-04-08T08:30:05;4.75;;;1.63;;
42602;SDS011;28233;55.748;48.752;2023-04-08T08:32:08;4.35;;;1.60;;
42602;SDS011;28233;55.748;48.752;2023-04-08T08:34:11;5.13;;;1.58;;
42602;SDS011;28233;55.748;48.752;2023-04-08T08:36:13;3.95;;;0.98;;
42602;SDS011;28233;55.748;48.752;2023-04-08T08:38:16;6.63;;;1.20;;
42602;SDS011;28233;55.748;48.752;2023-04-08T08:40:19;6.35;;;2.08;;
42602;SDS011;28233;55.748;48.752;2023-04-08T08:42:22;6.47;;;1.70;;
42602;SDS011;28233;55.748;48.752;2023-04-08T08:44:26;5.80;;;1.48;;
42602;SDS011;28233;55.748;48.752;2023-04-08T08:46:31;5.15;;;2.05;;
42602;SDS011;28233;55.748;48.752;2023-04-08T08:48:34;7.53;;;1.85;;
42602;SDS011;28233;55.748;48.752;2023-04-08T08:50:39;5.25;;;1.33;;
42602;SDS011;28233;55.748;48.752;2023-04-08T08:52:51;4.88;;;1.80;;
42602;SDS011;28233;55.748;48.752;2023-04-08T08:54:57;3.15;;;1.40;;
42602;SDS011;28233;55.748;48.752;2023-04-08T08:57:00;3.25;;;1.42;;
42602;SDS011;28233;55.748;48.752;2023-04-08T08:59:03;7.55;;;2.50;;
42602;SDS011;28233;55.748;48.752;2023-04-08T09:03:31;4.20;;;1.35;;
42602;SDS011;28233;55.748;48.752;2023-04-08T09:05:45;4.25;;;1.65;;
42602;SDS011;28233;55.748;48.752;2023-04-08T09:07:54;6.53;;;1.55;;
42602;SDS011;28233;55.748;48.752;2023-04-08T09:09:58;2.78;;;1.25;;
42602;SDS011;28233;55.748;48.752;2023-04-08T09:12:03;4.53;;;2.00;;
42602;SDS011;28233;55.748;48.752;2023-04-08T09:14:20;7.38;;;2.05;;
42602;SDS011;28233;55.748;48.752;2023-04-08T09:16:25;4.95;;;1.83;;
42602;SDS011;28233;55.748;48.752;2023-04-08T09:18:29;4.03;;;1.90;;
42602;SDS011;28233;55.748;48.752;2023-04-08T09:20:33;5.90;;;2.00;;
42602;SDS011;28233;55.748;48.752;2023-04-08T09:23:10;11.90;;;2.30;;
42602;SDS011;28233;55.748;48.752;2023-04-08T09:25:20;3.83;;;1.75;;
42602;SDS011;28233;55.748;48.752;2023-04-08T09:27:34;5.50;;;2.08;;
42602;SDS011;28233;55.748;48.752;2023-04-08T09:29:37;5.75;;;2.00;;
42602;SDS011;28233;55.748;48.752;2023-04-08T09:31:41;10.88;;;2.08;;
42602;SDS011;28233;55.748;48.752;2023-04-08T09:33:44;4.57;;;1.48;;
42602;SDS011;28233;55.748;48.752;2023-04-08T09:35:46;5.75;;;2.15;;
42602;SDS011;28233;55.748;48.752;2023-04-08T09:37:50;4.22;;;1.55;;
42602;SDS011;28233;55.748;48.752;2023-04-08T09:39:52;10.75;;;2.03;;
42602;SDS011;28233;55.748;48.752;2023-04-08T09:41:55;12.98;;;2.83;;
42602;SDS011;28233;55.748;48.752;2023-04-08T09:44:00;4.47;;;2.22;;
42602;SDS011;28233;55.748;48.752;2023-04-08T09:46:05;7.57;;;2.65;;
42602;SDS011;28233;55.748;48.752;2023-04-08T09:48:16;8.63;;;1.90;;
42602;SDS011;28233;55.748;48.752;2023-04-08T09:50:26;4.88;;;2.00;;
42602;SDS011;28233;55.748;48.752;2023-04-08T09:52:33;4.63;;;1.80;;
42602;SDS011;28233;55.748;48.752;2023-04-08T09:57:02;8.63;;;2.00;;
42602;SDS011;28233;55.748;48.752;2023-04-08T09:59:13;13.43;;;2.40;;
42602;SDS011;28233;55.748;48.752;2023-04-08T10:01:21;12.00;;;2.53;;
42602;SDS011;28233;55.748;48.752;2023-04-08T10:03:29;11.55;;;2.38;;
42602;SDS011;28233;55.748;48.752;2023-04-08T10:05:39;4.07;;;2.05;;
42602;SDS011;28233;55.748;48.752;2023-04-08T10:07:44;7.18;;;2.35;;
42602;SDS011;28233;55.748;48.752;2023-04-08T10:09:47;7.68;;;2.40;;
42602;SDS011;28233;55.748;48.752;2023-04-08T10:11:50;7.43;;;1.80;;
42602;SDS011;28233;55.748;48.752;2023-04-08T10:13:54;5.22;;;2.08;;
42602;SDS011;28233;55.748;48.752;2023-04-08T10:22:47;8.75;;;1.83;;
42602;SDS011;28233;55.748;48.752;2023-04-08T10:27:37;5.32;;;1.73;;
42602;SDS011;28233;55.748;48.752;2023-04-08T10:29:44;5.78;;;1.92;;
42602;SDS011;28233;55.748;48.752;2023-04-08T10:31:48;3.13;;;1.77;;
42602;SDS011;28233;55.748;48.752;2023-04-08T10:33:54;8.23;;;1.48;;
42602;SDS011;28233;55.748;48.752;2023-04-08T10:36:07;9.88;;;2.05;;
42602;SDS011;28233;55.748;48.752;2023-04-08T10:38:14;2.25;;;1.63;;
42602;SDS011;28233;55.748;48.752;2023-04-08T10:40:20;5.30;;;1.77;;
42602;SDS011;28233;55.748;48.752;2023-04-08T10:42:25;2.25;;;1.65;;
42602;SDS011;28233;55.748;48.752;2023-04-08T10:44:29;4.53;;;1.90;;
42602;SDS011;28233;55.748;48.752;2023-04-08T10:46:37;3.88;;;1.80;;
42602;SDS011;28233;55.748;48.752;2023-04-08T10:48:40;7.45;;;2.20;;
42602;SDS011;28233;55.748;48.752;2023-04-08T10:50:51;4.45;;;2.03;;
42602;SDS011;28233;55.748;48.752;2023-04-08T10:52:57;3.08;;;1.67;;
42602;SDS011;28233;55.748;48.752;2023-04-08T10:55:01;8.27;;;2.13;;
42602;SDS011;28233;55.748;48.752;2023-04-08T10:57:04;5.28;;;2.67;;
42602;SDS011;28233;55.748;48.752;2023-04-08T10:59:08;5.05;;;2.72;;
42602;SDS011;28233;55.748;48.752;2023-04-08T11:01:12;9.27;;;2.28;;
42602;SDS011;28233;55.748;48.752;2023-04-08T11:03:15;5.47;;;2.85;;
42602;SDS011;28233;55.748;48.752;2023-04-08T11:05:20;7.72;;;2.13;;
42602;SDS011;28233;55.748;48.752;2023-04-08T11:07:24;4.18;;;1.80;;
42602;SDS011;28233;55.748;48.752;2023-04-08T11:09:28;7.65;;;2.17;;
42602;SDS011;28233;55.748;48.752;2023-04-08T11:11:31;7.65;;;2.33;;
42602;SDS011;28233;55.748;48.752;2023-04-08T11:13:38;5.72;;;2.78;;
42602;SDS011;28233;55.748;48.752;2023-04-08T11:15:54;72.90;;;66.93;;
42602;SDS011;28233;55.748;48.752;2023-04-08T11:18:04;24.05;;;21.45;;
42602;SDS011;28233;55.748;48.752;2023-04-08T11:20:07;138.65;;;124.03;;
42602;SDS011;28233;55.748;48.752;2023-04-08T11:22:11;11.15;;;8.70;;
42602;SDS011;28233;55.748;48.752;2023-04-08T11:24:14;8.07;;;3.25;;
42602;SDS011;28233;55.748;48.752;2023-04-08T11:26:18;8.75;;;3.95;;
42602;SDS011;28233;55.748;48.752;2023-04-08T11:28:21;10.60;;;3.58;;
42602;SDS011;28233;55.748;48.752;2023-04-08T11:30:24;12.63;;;11.13;;
42602;SDS011;28233;55.748;48.752;2023-04-08T11:32:27;12.50;;;4.63;;
42602;SDS011;28233;55.748;48.752;2023-04-08T11:34:31;5.45;;;2.53;;
42602;SDS011;28233;55.748;48.752;2023-04-08T11:36:34;11.80;;;3.63;;
42602;SDS011;28233;55.748;48.752;2023-04-08T11:38:38;179.52;;;117.97;;
42602;SDS011;28233;55.748;48.752;2023-04-08T11:40:56;19.90;;;12.10;;
42602;SDS011;28233;55.748;48.752;2023-04-08T11:43:10;9.23;;;3.90;;
42602;SDS011;28233;55.748;48.752;2023-04-08T11:45:14;500.38;;;327.42;;
42602;SDS011;28233;55.748;48.752;2023-04-08T11:47:17;983.08;;;587.78;;
42602;SDS011;28233;55.748;48.752;2023-04-08T11:49:20;122.05;;;74.70;;
42602;SDS011;28233;55.748;48.752;2023-04-08T11:51:23;200.05;;;124.05;;
42602;SDS011;28233;55.748;48.752;2023-04-08T11:53:26;421.73;;;293.63;;
42602;SDS011;28233;55.748;48.752;2023-04-08T11:55:30;506.05;;;353.60;;
42602;SDS011;28233;55.748;48.752;2023-04-08T11:57:34;441.40;;;280.60;;
42602;SDS011;28233;55.748;48.752;2023-04-08T11:59:37;15.63;;;9.40;;
42602;SDS011;28233;55.748;48.752;2023-04-08T12:01:40;11.82;;;5.45;;
42602;SDS011;28233;55.748;48.752;2023-04-08T12:03:52;239.18;;;160.57;;
42602;SDS011;28233;55.748;48.752;2023-04-08T12:05:57;604.08;;;451.08;;
42602;SDS011;28233;55.748;48.752;2023-04-08T12:08:00;310.90;;;199.18;;
42602;SDS011;28233;55.748;48.752;2023-04-08T12:10:03;120.93;;;83.75;;
42602;SDS011;28233;55.748;48.752;2023-04-08T12:12:07;163.77;;;109.32;;
42602;SDS011;28233;55.748;48.752;2023-04-08T12:14:09;29.20;;;19.40;;
42602;SDS011;28233;55.748;48.752;2023-04-08T12:16:12;12.75;;;8.30;;
42602;SDS011;28233;55.748;48.752;2023-04-08T12:18:15;16.13;;;9.48;;
42602;SDS011;28233;55.748;48.752;2023-04-08T12:20:18;47.47;;;28.42;;
42602;SDS011;28233;55.748;48.752;2023-04-08T12:22:21;22.25;;;12.52;;
42602;SDS011;28233;55.748;48.752;2023-04-08T12:24:24;65.47;;;44.22;;
42602;SDS011;28233;55.748;48.752;2023-04-08T12:26:27;57.03;;;39.65;;
42602;SDS011;28233;55.748;48.752;2023-04-08T12:28:30;17.83;;;6.88;;
42602;SDS011;28233;55.748;48.752;2023-04-08T12:30:33;5.38;;;3.08;;